Simi Valley, CA (93062)

3:10 PM PDT on August 04, 2015 (GMT -0700)
Sycamore and Alamo | | Change Station
CLOSE
Current Station
Personal Weather Station
Location: Simi Valley, CA
Elevation: 1004 ft
Nearby Weather Stations

Elev 1004 ft 34.28 °N, 118.74 °W | Updated 4 minutes ago

Clear
Clear
84.6 °F
Feels Like 84 °F
N
0.0
Wind Variable Wind from North
Gusts 0.0 mph

Today
High -- | Low -- °F
--% Chance of Precip.
Yesterday
High -- | Low -- °F
Precip. -- in
6:07 AM 7:53 PM
Waning Gibbous, 74% visible
Pressure 29.88 in
Visibility 10.0 miles
Clouds Clear
Heat Index 84 °F
Dew Point 58 °F
Humidity 40%
Rainfall -999.00 in
Snow Depth Not available.
UV 10 out of 12
Pollen 4.00 out of 12
Air Quality Not available.
Flu Activity Not available.
METAR KVNY 042151Z 15009KT 10SM CLR 34/11 A2991 RMK AO2 SLP116 T03390111

More Conditions Fewer Conditions

Pressure 29.88 in
Visibility 10.0 miles
Clouds Clear
Heat Index 84 °F
Dew Point 58 °F
Humidity 40%
Rainfall -999.00 in
Snow Depth Not available.
UV 10 out of 12
Pollen 4.00 out of 12
Air Quality Not available.
Flu Activity Not available.
METAR KVNY 042151Z 15009KT 10SM CLR 34/11 A2991 RMK AO2 SLP116 T03390111

More Conditions Fewer Conditions

10-Day Weather Forecast

×

Almanac

Astronomy

Aug. 04, 2015 Rise Set
Actual Time
Civil Twilight
Nautical Twilight
Astronomical Twilight
Moon
Length of Visible Light
Length of Day
Tomorrow will be .
, % of the Moon is Illuminated

Today's Extremes

State Highs State Lows

Community

WunderPhotos

Upload Photos

1,844,002 photos uploaded!

WunderBlogs® & News

Nearby

Air Quality

  Air Quality AQ Index Pollutant
Not available.

Snow Depth

Station Depth Elevation

Earthquake Activity

City Distance Mag. Time & Date
Minimum magnitude displayed is 2.5.

Coastal Water Temperatures

Place Temperature

Stations

Nearby Weather Stations

Station Location Temp. Windchill Dew Point Humidity Wind Precip. Elev Updated Type